CheckWX is a tool to help pilots better visualize weather data.  It is not intended as a substitute for an official pre-flight weather briefing.

06:14:02 UTC

KJLN METAR
Joplin Regional Airport
Joplin, Missouri, USA
Current

21 mins ago

KJLN 280553Z AUTO 30006KT 10SM OVC010 03/02 A3021 RMK AO2 RAE29 SLP235 P0000 60000 T00330022 10083 20033 401001061 51019
Observed
Feb-28 @ 05:53 UTC
Wind
  • 300° at 6 KTS
Visibility
10 SM
Flight Rules
MVFR
Cloud Levels
  • Overcast at 1,000' AGL
Temperature
C / 37°F
Dewpoint
C / 36°F
Humidity
93%
Altimeter
30.21" Hg
Pressure
1023.02 hPa
Current Rain
0.01"
Previous

48 mins ago

KJLN 280526Z AUTO 32006KT 10SM -RA OVC010 03/02 A3020 RMK AO2 CIG 008V012 P0000 T00330022
Observed
Feb-28 @ 05:26 UTC
Wind
  • 320° at 6 KTS
Visibility
10 SM
Flight Rules
MVFR
Conditions
Light Rain
Cloud Levels
  • Overcast at 1,000' AGL
Temperature
C / 37°F
Dewpoint
C / 36°F
Humidity
93%
Altimeter
30.2" Hg
Pressure
1022.72 hPa
Current Rain
0.01"
Previous

1 hour ago

KJLN 280510Z AUTO 33007KT 8SM -RA BKN009 OVC025 03/02 A3020 RMK AO2 P0000 T00330022
Observed
Feb-28 @ 05:10 UTC
Wind
  • 330° at 7 KTS
Visibility
8 SM
Flight Rules
IFR
Conditions
Light Rain
Cloud Levels
  • Broken at 900' AGL
  • Overcast at 2,500' AGL
Temperature
C / 37°F
Dewpoint
C / 36°F
Humidity
93%
Altimeter
30.2" Hg
Pressure
1022.72 hPa
Current Rain
0.01"